createdAt,value
2019-04-30T00:01:16.998Z,22.20
2019-04-30T00:03:50.453Z,21.53
2019-04-30T00:06:21.800Z,23.93
2019-04-30T00:08:55.080Z,23.93
2019-04-30T00:11:26.087Z,23.77
2019-04-30T00:13:58.946Z,24.40
2019-04-30T00:16:30.941Z,23.10
2019-04-30T00:19:03.249Z,24.40
2019-04-30T00:21:36.078Z,24.87
2019-04-30T00:24:10.250Z,22.83
2019-04-30T00:26:45.054Z,21.33
2019-04-30T00:29:19.262Z,24.80
2019-04-30T00:31:47.107Z,23.40
2019-04-30T00:34:18.624Z,23.87
2019-04-30T00:36:50.211Z,24.00
2019-04-30T00:39:21.779Z,24.40
2019-04-30T00:41:54.671Z,22.33
2019-04-30T00:44:28.366Z,22.80
2019-04-30T00:47:00.666Z,22.17
2019-04-30T00:49:35.055Z,25.10
2019-04-30T00:52:06.490Z,22.87
2019-04-30T00:54:38.875Z,24.37
2019-04-30T00:57:10.137Z,24.23
2019-04-30T00:59:44.664Z,25.03
2019-04-30T01:02:32.292Z,25.70
2019-04-30T01:05:10.146Z,25.10
2019-04-30T01:07:48.849Z,26.90
2019-04-30T01:10:19.626Z,27.10
2019-04-30T01:12:50.288Z,27.17
2019-04-30T01:15:21.806Z,26.80
2019-04-30T01:17:54.078Z,25.67
2019-04-30T01:20:46.470Z,24.53
2019-04-30T01:23:24.248Z,27.37
2019-04-30T01:25:55.535Z,25.93
2019-04-30T01:28:28.424Z,30.10
2019-04-30T01:31:01.931Z,27.30
2019-04-30T01:33:34.728Z,22.70
2019-04-30T01:36:09.694Z,24.63
2019-04-30T01:38:40.320Z,25.27
2019-04-30T01:41:12.516Z,22.27
2019-04-30T01:43:43.732Z,23.67
2019-04-30T01:46:14.898Z,21.70
2019-04-30T01:48:50.554Z,20.80
2019-04-30T01:51:25.430Z,20.80
2019-04-30T01:53:56.822Z,21.70
2019-04-30T01:56:32.611Z,22.33
2019-04-30T01:59:09.211Z,20.70
2019-04-30T02:01:45.184Z,24.00
2019-04-30T02:04:19.487Z,20.47
2019-04-30T02:06:50.869Z,18.97
2019-04-30T02:09:23.254Z,21.53
2019-04-30T02:11:54.400Z,23.30
2019-04-30T02:14:25.665Z,19.90
2019-04-30T02:16:56.694Z,18.17
2019-04-30T02:19:28.765Z,17.53
2019-04-30T02:22:00.777Z,18.27
2019-04-30T02:24:31.810Z,18.97
2019-04-30T02:27:02.940Z,19.23
2019-04-30T02:29:34.106Z,18.43
2019-04-30T02:32:05.336Z,17.43
2019-04-30T02:34:44.613Z,18.47
2019-04-30T02:37:20.869Z,16.80
2019-04-30T02:39:50.772Z,17.07
2019-04-30T02:42:22.497Z,16.20
2019-04-30T02:44:54.282Z,14.77
2019-04-30T02:47:30.277Z,14.43
2019-04-30T02:50:15.272Z,16.23
2019-04-30T02:52:40.171Z,15.20
2019-04-30T02:55:15.067Z,14.90
2019-04-30T02:57:46.229Z,15.10
2019-04-30T03:00:20.639Z,13.10
2019-04-30T03:02:51.748Z,15.40
2019-04-30T03:05:22.909Z,15.17
2019-04-30T03:07:53.980Z,14.83
2019-04-30T03:10:25.197Z,14.43
2019-04-30T03:12:56.381Z,14.43
2019-04-30T03:15:29.816Z,14.17
2019-04-30T03:18:02.655Z,13.57
2019-04-30T03:20:36.631Z,13.73
2019-04-30T03:23:09.872Z,14.00
2019-04-30T03:25:41.102Z,12.27
2019-04-30T03:28:13.488Z,12.40
2019-04-30T03:30:44.515Z,12.43
2019-04-30T03:33:15.684Z,10.90
2019-04-30T03:35:52.658Z,12.07
2019-04-30T03:38:20.383Z,10.73
2019-04-30T03:40:51.624Z,11.23
2019-04-30T03:43:22.767Z,11.20
2019-04-30T03:45:54.005Z,10.67
2019-04-30T03:48:25.169Z,10.30
2019-04-30T03:50:57.321Z,11.13
2019-04-30T03:53:29.901Z,11.13
2019-04-30T03:56:01.525Z,10.93
2019-04-30T03:58:32.673Z,11.47
2019-04-30T04:01:19.601Z,12.30
2019-04-30T04:04:00.340Z,12.07
2019-04-30T04:06:39.446Z,11.90
2019-04-30T04:09:15.416Z,12.53
2019-04-30T04:11:50.560Z,12.17
2019-04-30T04:14:20.868Z,12.40
2019-04-30T04:16:52.302Z,14.00
2019-04-30T04:19:23.299Z,12.70
2019-04-30T04:21:55.702Z,13.57
2019-04-30T04:24:26.840Z,14.93
2019-04-30T04:26:59.660Z,13.70
2019-04-30T04:29:30.929Z,12.90
2019-04-30T04:32:02.199Z,14.47
2019-04-30T04:34:33.450Z,14.93
2019-04-30T04:37:04.966Z,14.70
2019-04-30T04:39:36.226Z,15.63
2019-04-30T04:42:09.966Z,15.47
2019-04-30T04:44:41.536Z,16.43
2019-04-30T04:47:15.998Z,15.20
2019-04-30T04:49:53.010Z,16.43
2019-04-30T04:52:21.604Z,16.57
2019-04-30T04:54:54.285Z,18.43
2019-04-30T04:57:25.555Z,18.13
2019-04-30T05:00:03.471Z,18.40
2019-04-30T05:02:42.868Z,20.07
2019-04-30T05:05:14.155Z,20.43
2019-04-30T05:07:45.279Z,22.53
2019-04-30T05:10:16.451Z,22.70
2019-04-30T05:12:50.601Z,25.50
2019-04-30T05:15:20.629Z,24.20
2019-04-30T05:17:51.775Z,25.50
2019-04-30T05:20:22.936Z,25.33
2019-04-30T05:22:54.158Z,25.13
2019-04-30T05:25:25.530Z,26.00
2019-04-30T05:27:58.591Z,25.67
2019-04-30T05:30:30.636Z,25.77
2019-04-30T05:33:01.784Z,26.40
2019-04-30T05:35:33.038Z,27.63
2019-04-30T05:38:04.285Z,26.40
2019-04-30T05:40:35.485Z,25.73
2019-04-30T05:46:04.211Z,26.40
2019-04-30T05:48:35.313Z,25.90
2019-04-30T05:51:06.682Z,24.97
2019-04-30T05:53:39.349Z,25.23
2019-04-30T05:56:10.810Z,25.43
2019-04-30T05:58:42.234Z,25.57
2019-04-30T06:01:13.482Z,26.70
2019-04-30T06:03:45.213Z,27.40
2019-04-30T06:06:19.365Z,26.03
2019-04-30T06:09:06.195Z,24.37
2019-04-30T06:11:51.033Z,22.23
2019-04-30T06:14:30.167Z,22.07
2019-04-30T06:17:06.216Z,21.30
2019-04-30T06:19:39.150Z,19.47
2019-04-30T06:22:11.171Z,22.77
2019-04-30T06:24:42.635Z,21.10
2019-04-30T06:27:14.374Z,20.23
2019-04-30T06:29:46.036Z,20.00
2019-04-30T06:32:18.609Z,17.43
2019-04-30T06:34:50.143Z,18.67
2019-04-30T06:37:21.510Z,19.80
2019-04-30T06:39:52.642Z,18.27
2019-04-30T06:42:23.926Z,18.07
2019-04-30T06:44:55.282Z,19.67
2019-04-30T06:47:33.189Z,19.03
2019-04-30T06:50:01.329Z,19.43
2019-04-30T06:52:32.777Z,20.97
2019-04-30T06:55:05.028Z,20.37
2019-04-30T06:57:36.274Z,20.70
2019-04-30T07:00:09.868Z,19.23
2019-04-30T07:02:41.460Z,17.63
2019-04-30T07:05:12.924Z,16.60
2019-04-30T07:08:11.402Z,14.17
2019-04-30T07:10:41.424Z,16.67
2019-04-30T07:13:14.803Z,16.83
2019-04-30T07:15:45.973Z,17.60
2019-04-30T07:18:18.972Z,15.53
2019-04-30T07:20:50.274Z,14.93
2019-04-30T07:23:21.497Z,14.53
2019-04-30T07:25:52.728Z,14.40
2019-04-30T07:28:42.684Z,15.10
2019-04-30T07:31:10.264Z,14.70
2019-04-30T07:33:31.327Z,14.93
2019-04-30T07:36:02.715Z,14.60
2019-04-30T07:38:35.807Z,15.40
2019-04-30T07:41:07.026Z,14.50
2019-04-30T07:43:39.357Z,13.53
2019-04-30T07:46:10.690Z,13.40
2019-04-30T07:48:41.979Z,13.40
2019-04-30T07:51:13.755Z,12.20
2019-04-30T07:53:45.509Z,12.53
2019-04-30T07:56:25.569Z,13.33
2019-04-30T07:58:50.590Z,13.20
2019-04-30T08:01:21.756Z,12.90
2019-04-30T08:03:54.854Z,13.23
2019-04-30T08:06:26.857Z,13.70
2019-04-30T08:09:00.638Z,12.33
2019-04-30T08:11:34.495Z,13.33
2019-04-30T08:14:04.962Z,14.07
2019-04-30T08:16:38.530Z,13.13
2019-04-30T08:19:09.545Z,13.10
2019-04-30T08:21:40.675Z,13.20
2019-04-30T08:24:12.023Z,12.30
2019-04-30T08:26:43.247Z,12.53
2019-04-30T08:29:14.426Z,12.37
2019-04-30T08:31:45.687Z,13.83
2019-04-30T08:34:16.930Z,13.03
2019-04-30T08:36:48.940Z,12.73
2019-04-30T08:39:20.270Z,13.87
2019-04-30T08:41:51.418Z,12.80
2019-04-30T08:44:22.701Z,13.53
2019-04-30T08:46:53.906Z,12.70
2019-04-30T08:49:25.455Z,12.50
2019-04-30T08:51:58.679Z,12.53
2019-04-30T08:54:29.862Z,11.60
2019-04-30T08:57:01.153Z,11.95
2019-04-30T08:59:32.549Z,12.07
2019-04-30T09:02:13.667Z,11.97
2019-04-30T09:04:38.782Z,10.68
2019-04-30T09:07:10.230Z,11.33
2019-04-30T09:09:44.471Z,12.00
2019-04-30T09:12:16.646Z,12.00
2019-04-30T09:14:49.088Z,11.80
2019-04-30T09:17:20.612Z,12.28
2019-04-30T09:19:51.776Z,11.85
2019-04-30T09:22:22.812Z,11.80
2019-04-30T09:24:54.060Z,12.50
2019-04-30T09:27:25.308Z,12.00
2019-04-30T09:29:56.568Z,12.25
2019-04-30T09:32:29.104Z,12.87
2019-04-30T09:35:00.763Z,12.10
2019-04-30T09:37:31.905Z,12.43
2019-04-30T09:40:15.327Z,11.85
2019-04-30T09:42:39.069Z,12.05
2019-04-30T09:45:10.715Z,10.93
2019-04-30T09:47:42.187Z,12.30
2019-04-30T09:50:14.015Z,11.97
2019-04-30T09:52:45.421Z,12.63
2019-04-30T09:55:16.526Z,11.50
2019-04-30T09:57:48.813Z,12.15
2019-04-30T10:00:20.642Z,12.45
2019-04-30T10:02:51.769Z,12.00
2019-04-30T10:05:23.054Z,12.63
2019-04-30T10:07:54.169Z,12.40
2019-04-30T10:10:28.901Z,13.47
2019-04-30T10:13:00.273Z,12.23
2019-04-30T10:15:40.464Z,13.27
2019-04-30T10:18:11.833Z,12.53
2019-04-30T10:20:43.446Z,12.67
2019-04-30T10:23:15.214Z,12.60
2019-04-30T10:25:46.636Z,11.97
2019-04-30T10:28:19.635Z,13.23
2019-04-30T10:30:50.980Z,13.10
2019-04-30T10:33:22.277Z,14.77
2019-04-30T10:35:53.689Z,12.70
2019-04-30T10:38:24.752Z,13.53
2019-04-30T10:40:55.989Z,13.60
2019-04-30T10:43:29.072Z,12.15
2019-04-30T10:46:01.745Z,12.60
2019-04-30T10:48:33.041Z,11.85
2019-04-30T10:51:04.368Z,12.35
2019-04-30T10:53:35.846Z,12.88
2019-04-30T10:56:07.182Z,14.40
2019-04-30T10:58:38.429Z,12.43
2019-04-30T11:01:09.705Z,13.03
2019-04-30T11:03:42.910Z,13.03
2019-04-30T11:06:14.213Z,12.33
2019-04-30T11:08:45.441Z,13.43
2019-04-30T11:11:17.038Z,12.60
2019-04-30T11:13:48.260Z,13.63
2019-04-30T11:16:19.432Z,13.80
2019-04-30T11:18:50.728Z,12.87
2019-04-30T11:21:22.417Z,13.67
2019-04-30T11:23:53.832Z,13.23
2019-04-30T11:26:25.855Z,12.17
2019-04-30T11:28:57.642Z,12.90
2019-04-30T11:31:40.132Z,12.87
2019-04-30T11:34:11.506Z,13.63
2019-04-30T11:36:42.818Z,13.53
2019-04-30T11:39:16.147Z,13.03
2019-04-30T11:41:47.504Z,12.57
2019-04-30T11:44:30.342Z,12.87
2019-04-30T11:46:59.577Z,12.33
2019-04-30T11:49:31.060Z,11.90
2019-04-30T11:52:02.549Z,14.87
2019-04-30T11:54:33.638Z,12.87
2019-04-30T11:57:05.688Z,12.63
2019-04-30T11:59:37.064Z,13.63
2019-04-30T12:02:13.014Z,12.73
2019-04-30T12:04:44.241Z,11.93
2019-04-30T12:07:17.409Z,13.67
2019-04-30T12:10:02.255Z,12.80
2019-04-30T12:12:33.526Z,12.77
2019-04-30T12:15:06.125Z,13.03
2019-04-30T12:17:37.289Z,12.07
2019-04-30T12:20:09.924Z,12.53
2019-04-30T12:22:41.176Z,13.57
2019-04-30T12:25:12.519Z,13.80
2019-04-30T12:27:43.840Z,12.87
2019-04-30T12:30:15.713Z,14.40
2019-04-30T12:32:46.984Z,11.77
2019-04-30T12:35:18.421Z,11.63
2019-04-30T12:37:52.363Z,13.23
2019-04-30T12:40:28.712Z,13.07
2019-04-30T12:42:55.764Z,12.97
2019-04-30T12:45:27.040Z,12.90
2019-04-30T12:48:02.726Z,12.97
2019-04-30T12:50:35.700Z,13.17
2019-04-30T12:53:09.488Z,13.80
2019-04-30T12:56:00.398Z,12.60
2019-04-30T12:58:31.722Z,12.70
2019-04-30T13:01:03.368Z,13.37
2019-04-30T13:03:34.406Z,12.70
2019-04-30T13:06:06.200Z,12.97
2019-04-30T13:08:38.293Z,13.00
2019-04-30T13:11:12.773Z,13.37
2019-04-30T13:13:43.775Z,13.47
2019-04-30T13:16:15.717Z,13.93
2019-04-30T13:18:46.872Z,13.33
2019-04-30T13:21:18.439Z,13.40
2019-04-30T13:23:49.756Z,14.03
2019-04-30T13:26:20.928Z,13.30
2019-04-30T13:28:59.892Z,14.27
2019-04-30T13:31:31.225Z,14.27
2019-04-30T13:34:20.647Z,14.13
2019-04-30T13:36:51.914Z,14.27
2019-04-30T13:39:26.981Z,13.80
2019-04-30T13:42:00.026Z,13.97
2019-04-30T13:44:35.700Z,13.70
2019-04-30T13:47:10.692Z,14.33
2019-04-30T13:49:40.117Z,14.80
2019-04-30T13:52:11.291Z,14.47
2019-04-30T13:54:42.399Z,13.90
2019-04-30T13:57:13.564Z,14.10
2019-04-30T13:59:44.915Z,14.10
2019-04-30T14:02:15.978Z,14.23
2019-04-30T14:04:49.956Z,12.87
2019-04-30T14:07:40.312Z,13.67
2019-04-30T14:10:12.058Z,14.10
2019-04-30T14:12:45.176Z,14.83
2019-04-30T14:15:16.563Z,14.50
2019-04-30T14:17:49.422Z,14.60
2019-04-30T14:20:20.768Z,14.10
2019-04-30T14:22:52.023Z,14.17
2019-04-30T14:25:23.057Z,13.70
2019-04-30T14:27:54.922Z,14.60
2019-04-30T14:30:26.345Z,13.13
2019-04-30T14:32:59.329Z,13.97
2019-04-30T14:35:30.485Z,14.40
2019-04-30T14:38:01.926Z,14.03
2019-04-30T14:40:34.039Z,14.20
2019-04-30T14:43:09.866Z,14.83
2019-04-30T14:46:01.738Z,14.67
2019-04-30T14:48:35.901Z,14.17
2019-04-30T14:51:07.779Z,14.93
2019-04-30T14:53:48.865Z,14.77
2019-04-30T14:56:33.640Z,13.73
2019-04-30T14:59:09.199Z,14.10
2019-04-30T15:01:49.096Z,13.33
2019-04-30T15:04:21.810Z,13.20
2019-04-30T15:06:52.977Z,13.70
2019-04-30T15:09:24.536Z,13.30
2019-04-30T15:11:56.180Z,14.10
2019-04-30T15:14:27.310Z,15.03
2019-04-30T15:16:58.588Z,14.33
2019-04-30T15:19:29.831Z,14.23
2019-04-30T15:22:03.886Z,14.37
2019-04-30T15:24:35.421Z,14.40
2019-04-30T15:27:06.648Z,13.87
2019-04-30T15:29:39.177Z,14.93
2019-04-30T15:32:10.552Z,13.93
2019-04-30T15:34:42.493Z,13.90
2019-04-30T15:37:21.657Z,13.83
2019-04-30T15:39:46.814Z,15.20
2019-04-30T15:42:20.324Z,13.50
2019-04-30T15:44:51.497Z,14.20
2019-04-30T15:47:23.487Z,14.33
2019-04-30T15:49:54.748Z,14.57
2019-04-30T15:52:25.887Z,14.67
2019-04-30T15:54:58.903Z,13.07
2019-04-30T15:57:30.264Z,14.17
2019-04-30T16:00:03.165Z,13.97
2019-04-30T16:02:56.534Z,16.23
2019-04-30T16:05:26.310Z,15.47
2019-04-30T16:07:59.549Z,13.77
2019-04-30T16:10:39.790Z,14.40
2019-04-30T16:13:12.930Z,14.87
2019-04-30T16:15:44.268Z,14.83
2019-04-30T16:18:15.715Z,14.57
2019-04-30T16:20:46.981Z,15.40
2019-04-30T16:23:19.146Z,15.63
2019-04-30T16:25:50.371Z,15.43
2019-04-30T16:28:21.538Z,14.77
2019-04-30T16:30:52.785Z,15.10
2019-04-30T16:33:24.374Z,15.53
2019-04-30T16:35:55.480Z,16.70
2019-04-30T16:38:28.830Z,15.63
2019-04-30T16:40:59.663Z,16.20
2019-04-30T16:43:30.965Z,15.13
2019-04-30T16:46:03.552Z,15.83
2019-04-30T16:48:34.960Z,17.13
2019-04-30T16:51:06.239Z,15.63
2019-04-30T16:53:38.346Z,14.77
2019-04-30T16:56:10.488Z,15.83
2019-04-30T16:58:57.726Z,15.00
2019-04-30T17:01:30.693Z,16.20
2019-04-30T17:04:16.868Z,15.80
2019-04-30T17:06:58.843Z,16.33
2019-04-30T17:09:44.066Z,16.30
2019-04-30T17:12:32.435Z,16.53
2019-04-30T17:15:13.231Z,17.87
2019-04-30T17:17:44.657Z,16.20
2019-04-30T17:20:16.052Z,17.43
2019-04-30T17:22:49.504Z,16.57
2019-04-30T17:25:20.655Z,17.83
2019-04-30T17:27:52.106Z,17.00
2019-04-30T17:30:23.639Z,19.30
2019-04-30T17:32:54.999Z,17.53
2019-04-30T17:35:26.357Z,17.70
2019-04-30T17:37:57.775Z,17.57
2019-04-30T17:40:29.219Z,16.40
2019-04-30T17:43:00.456Z,16.43
2019-04-30T17:45:31.738Z,16.47
2019-04-30T17:48:03.102Z,17.57
2019-04-30T17:50:34.533Z,17.77
2019-04-30T17:53:05.974Z,17.53
2019-04-30T17:55:39.092Z,17.90
2019-04-30T17:58:10.568Z,18.37
2019-04-30T18:00:44.811Z,17.83
2019-04-30T18:03:15.957Z,18.73
2019-04-30T18:05:49.074Z,17.57
2019-04-30T18:08:21.474Z,17.50
2019-04-30T18:10:53.102Z,17.47
2019-04-30T18:13:24.329Z,18.70
2019-04-30T18:15:55.496Z,17.17
2019-04-30T18:18:28.525Z,18.60
2019-04-30T18:21:04.204Z,18.37
2019-04-30T18:23:42.960Z,18.47
2019-04-30T18:26:17.025Z,17.50
2019-04-30T18:28:48.158Z,19.87
2019-04-30T18:31:19.297Z,18.93
2019-04-30T18:33:51.433Z,20.77
2019-04-30T18:36:22.896Z,21.83
2019-04-30T18:38:54.251Z,19.30
2019-04-30T18:41:26.652Z,22.17
2019-04-30T18:43:59.653Z,19.40
2019-04-30T18:46:31.168Z,18.87
2019-04-30T18:49:02.612Z,20.77
2019-04-30T18:51:39.333Z,20.50
2019-04-30T18:54:07.202Z,18.37
2019-04-30T18:56:38.976Z,21.83
2019-04-30T18:59:10.208Z,20.47
2019-04-30T19:01:41.657Z,22.17
2019-04-30T19:04:13.013Z,21.90
2019-04-30T19:06:44.264Z,21.70
2019-04-30T19:09:32.701Z,22.33
2019-04-30T19:12:06.151Z,20.10
2019-04-30T19:14:41.832Z,22.10
2019-04-30T19:17:19.441Z,22.03
2019-04-30T19:19:52.818Z,22.37
2019-04-30T19:22:24.117Z,21.60
2019-04-30T19:24:58.525Z,21.57
2019-04-30T19:27:29.671Z,23.07
2019-04-30T19:30:02.254Z,23.43
2019-04-30T19:32:33.646Z,22.27
2019-04-30T19:35:06.170Z,21.93
2019-04-30T19:37:38.622Z,22.03
2019-04-30T19:40:12.009Z,22.60
2019-04-30T19:42:43.150Z,24.03
2019-04-30T19:45:14.688Z,21.77
2019-04-30T19:47:45.973Z,22.77
2019-04-30T19:50:19.143Z,21.63
2019-04-30T19:52:50.381Z,23.93
2019-04-30T19:55:22.635Z,21.40
2019-04-30T19:57:53.931Z,24.13
2019-04-30T20:00:25.171Z,23.00
2019-04-30T20:02:58.067Z,24.37
2019-04-30T20:05:29.980Z,22.60
2019-04-30T20:08:01.197Z,22.67
2019-04-30T20:10:32.572Z,21.13
2019-04-30T20:13:03.901Z,21.57
2019-04-30T20:15:35.169Z,21.77
2019-04-30T20:18:08.838Z,22.17
2019-04-30T20:20:41.471Z,21.90
2019-04-30T20:23:13.721Z,23.20
2019-04-30T20:25:44.891Z,22.47
2019-04-30T20:28:15.930Z,21.17
2019-04-30T20:30:48.956Z,22.87
2019-04-30T20:33:20.016Z,23.50
2019-04-30T20:35:53.366Z,22.70
2019-04-30T20:38:26.466Z,23.03
2019-04-30T20:41:02.815Z,24.00
2019-04-30T20:43:30.764Z,22.47
2019-04-30T20:46:01.969Z,22.70
2019-04-30T20:48:33.276Z,22.10
2019-04-30T20:51:04.467Z,22.30
2019-04-30T20:53:35.499Z,22.90
2019-04-30T20:56:06.679Z,23.00
2019-04-30T20:58:40.484Z,23.23
2019-04-30T21:01:10.732Z,24.80
2019-04-30T21:03:41.930Z,23.30
2019-04-30T21:06:13.396Z,25.23
2019-04-30T21:08:44.798Z,23.30
2019-04-30T21:11:16.136Z,23.33
2019-04-30T21:13:49.120Z,23.50
2019-04-30T21:16:20.557Z,23.47
2019-04-30T21:18:52.817Z,23.90
2019-04-30T21:21:23.926Z,24.40
2019-04-30T21:23:55.085Z,24.20
2019-04-30T21:26:26.219Z,25.00
2019-04-30T21:29:10.418Z,23.67
2019-04-30T21:31:38.724Z,24.40
2019-04-30T21:34:29.342Z,25.03
2019-04-30T21:37:00.630Z,25.13
2019-04-30T21:39:32.299Z,26.50
2019-04-30T21:42:03.522Z,27.13
2019-04-30T21:44:34.696Z,27.63
2019-04-30T21:47:05.872Z,25.77
2019-04-30T21:49:37.175Z,27.50
2019-04-30T21:52:09.462Z,27.23
2019-04-30T21:54:40.665Z,26.20
2019-04-30T21:57:11.732Z,26.07
2019-04-30T21:59:42.870Z,25.30
2019-04-30T22:02:14.258Z,26.40
2019-04-30T22:04:45.519Z,26.03
2019-04-30T22:07:19.474Z,27.00
2019-04-30T22:09:50.569Z,26.87
2019-04-30T22:12:21.849Z,28.27
2019-04-30T22:14:52.994Z,28.20
2019-04-30T22:17:24.117Z,29.87
2019-04-30T22:19:55.332Z,29.13
2019-04-30T22:22:26.480Z,28.57
2019-04-30T22:24:59.611Z,27.90
2019-04-30T22:27:32.219Z,29.00
2019-04-30T22:30:05.074Z,30.13
2019-04-30T22:32:36.319Z,31.13
2019-04-30T22:35:27.388Z,29.07
2019-04-30T22:38:06.284Z,34.33
2019-04-30T22:40:39.234Z,27.57
2019-04-30T22:43:10.806Z,28.83
2019-04-30T22:45:50.108Z,28.23
2019-04-30T22:48:21.209Z,29.87
2019-04-30T22:50:52.388Z,30.83
2019-04-30T22:53:23.403Z,28.87
2019-04-30T22:55:54.481Z,29.27
2019-04-30T22:58:25.686Z,29.47
2019-04-30T23:01:05.252Z,25.63
2019-04-30T23:03:36.584Z,25.93
2019-04-30T23:06:07.839Z,25.87
2019-04-30T23:08:39.096Z,25.23
2019-04-30T23:11:10.237Z,28.60
2019-04-30T23:13:41.304Z,25.87
2019-04-30T23:16:12.936Z,27.23
2019-04-30T23:18:44.200Z,26.97
2019-04-30T23:21:15.532Z,24.93
2019-04-30T23:23:46.714Z,26.40
2019-04-30T23:26:18.945Z,22.50
2019-04-30T23:28:49.999Z,23.90
2019-04-30T23:31:21.124Z,25.77
2019-04-30T23:33:52.331Z,21.97
2019-04-30T23:36:23.530Z,24.73
2019-04-30T23:38:54.699Z,22.23
2019-04-30T23:41:25.873Z,23.03
2019-04-30T23:43:57.079Z,22.97
2019-04-30T23:46:28.217Z,25.60
2019-04-30T23:49:01.308Z,26.00
2019-04-30T23:51:32.673Z,26.50
2019-04-30T23:54:03.890Z,23.73
2019-04-30T23:56:35.164Z,26.93
2019-04-30T23:59:06.282Z,23.70
